Time;durP1;ratioP1;P1;durP2;ratioP2;P2;SDS_P1;SDS_P2;PMS_P1;PMS_P2;Temp;Humidity;BMP_temperature;BMP_pressure;BME280_temperature;BME280_humidity;BME280_pressure;Samples;Min_cycle;Max_cycle;Signal;HPM_P1;HPM_P2
2023/03/15 00:00:38;;;;;;;14.05;5.38;;;;;;;;;;5049945;28;20033;-75
2023/03/15 00:03:04;;;;;;;11.88;4.95;;;;;;;;;;5040536;28;20045;-75
2023/03/15 00:05:30;;;;;;;16.27;4.90;;;;;;;;;;5054552;28;20065;-75
2023/03/15 00:07:57;;;;;;;13.40;5.50;;;;;;;;;;5037709;28;20034;-75
2023/03/15 00:10:23;;;;;;;19.40;6.18;;;;;;;;;;5055715;28;20029;-75
2023/03/15 00:12:49;;;;;;;14.02;4.55;;;;;;;;;;5048425;28;20056;-75
2023/03/15 00:15:15;;;;;;;12.52;4.03;;;;;;;;;;5045712;28;20028;-74
2023/03/15 00:17:41;;;;;;;5.32;0.90;;;;;;;;;;5049431;28;20044;-75
2023/03/15 00:20:09;;;;;;;4.88;0.50;;;;;;;;;;5058620;28;20032;-75
2023/03/15 00:22:35;;;;;;;2.13;0.50;;;;;;;;;;5050345;28;20044;-75
2023/03/15 00:25:01;;;;;;;5.82;0.82;;;;;;;;;;5047830;28;20041;-75
2023/03/15 00:27:27;;;;;;;5.57;0.90;;;;;;;;;;5046254;28;20494;-75
2023/03/15 00:29:53;;;;;;;4.25;0.70;;;;;;;;;;5048913;28;20032;-75
2023/03/15 00:32:19;;;;;;;8.63;2.47;;;;;;;;;;5050924;28;20741;-75
2023/03/15 00:34:47;;;;;;;2.83;0.88;;;;;;;;;;5045204;28;20051;-75
2023/03/15 00:37:15;;;;;;;1.50;0.45;;;;;;;;;;5042235;28;20059;-75
2023/03/15 00:39:44;;;;;;;3.80;0.28;;;;;;;;;;5032804;28;20044;-75
2023/03/15 00:42:10;;;;;;;3.95;0.50;;;;;;;;;;5047575;28;20041;-75
2023/03/15 00:44:36;;;;;;;2.03;0.47;;;;;;;;;;5048823;28;20112;-75
2023/03/15 00:47:02;;;;;;;4.60;1.35;;;;;;;;;;5043338;28;20112;-75
2023/03/15 00:49:28;;;;;;;2.58;0.55;;;;;;;;;;5046782;28;20532;-74
2023/03/15 00:51:54;;;;;;;3.55;0.60;;;;;;;;;;5047800;28;20040;-75
2023/03/15 00:54:22;;;;;;;5.53;1.40;;;;;;;;;;5044390;28;20742;-75
2023/03/15 00:56:49;;;;;;;8.82;1.65;;;;;;;;;;5031115;28;20021;-75
2023/03/15 00:59:15;;;;;;;7.03;1.40;;;;;;;;;;5046389;28;20040;-75
2023/03/15 01:01:43;;;;;;;6.43;1.80;;;;;;;;;;5048015;28;20044;-75
2023/03/15 01:04:10;;;;;;;5.15;1.42;;;;;;;;;;5044879;28;20100;-75
2023/03/15 01:06:37;;;;;;;8.43;2.65;;;;;;;;;;5046307;28;20025;-74
2023/03/15 01:09:03;;;;;;;11.18;3.97;;;;;;;;;;5045992;28;20040;-75
2023/03/15 01:11:29;;;;;;;14.27;4.60;;;;;;;;;;5042402;28;20029;-75
2023/03/15 01:13:56;;;;;;;18.80;5.75;;;;;;;;;;5044587;28;20104;-75
2023/03/15 01:16:22;;;;;;;36.45;13.27;;;;;;;;;;5045052;28;20371;-75
2023/03/15 01:18:50;;;;;;;31.02;10.77;;;;;;;;;;5047679;28;20033;-75
2023/03/15 01:21:16;;;;;;;31.52;13.40;;;;;;;;;;5040205;28;20455;-75
2023/03/15 01:23:43;;;;;;;31.67;13.60;;;;;;;;;;5047039;28;20837;-75
2023/03/15 01:26:10;;;;;;;22.10;9.63;;;;;;;;;;5047020;28;20029;-75
2023/03/15 01:28:36;;;;;;;19.33;8.73;;;;;;;;;;5047620;28;20087;-75
2023/03/15 01:31:03;;;;;;;17.58;7.72;;;;;;;;;;5044929;28;20079;-75
2023/03/15 01:33:29;;;;;;;16.10;7.15;;;;;;;;;;5028951;28;20120;-75
2023/03/15 01:35:59;;;;;;;16.13;8.05;;;;;;;;;;5046727;28;20120;-75
2023/03/15 01:38:25;;;;;;;15.10;6.50;;;;;;;;;;5042489;28;20478;-74
2023/03/15 01:40:51;;;;;;;11.77;5.55;;;;;;;;;;5045926;28;20064;-75
2023/03/15 01:43:22;;;;;;;12.15;5.75;;;;;;;;;;5045910;28;20575;-75
2023/03/15 01:45:52;;;;;;;12.65;5.47;;;;;;;;;;5040710;28;20112;-75
2023/03/15 01:48:18;;;;;;;9.25;3.15;;;;;;;;;;5047452;28;20041;-75
2023/03/15 01:50:44;;;;;;;7.25;3.10;;;;;;;;;;5045691;28;20051;-75
2023/03/15 01:53:11;;;;;;;12.60;3.88;;;;;;;;;;5043997;28;20412;-75
2023/03/15 01:55:37;;;;;;;7.68;3.67;;;;;;;;;;5047028;28;20037;-75
2023/03/15 01:58:06;;;;;;;10.27;3.97;;;;;;;;;;5044867;28;20033;-75
2023/03/15 02:00:32;;;;;;;14.82;7.20;;;;;;;;;;5040984;28;20055;-75
2023/03/15 02:02:58;;;;;;;22.85;13.15;;;;;;;;;;5046026;28;20075;-75
2023/03/15 02:05:26;;;;;;;16.65;10.13;;;;;;;;;;5046802;28;20036;-75
2023/03/15 02:07:53;;;;;;;16.80;9.23;;;;;;;;;;5039444;28;20028;-75
2023/03/15 02:10:28;;;;;;;15.23;9.43;;;;;;;;;;5041120;28;21029;-75
2023/03/15 02:12:55;;;;;;;9.38;4.38;;;;;;;;;;5041308;28;20550;-74
2023/03/15 02:15:21;;;;;;;10.32;4.82;;;;;;;;;;5038981;28;20045;-75
2023/03/15 02:17:48;;;;;;;7.43;3.38;;;;;;;;;;5045209;28;20037;-75
2023/03/15 02:20:28;;;;;;;10.77;3.05;;;;;;;;;;5047121;28;20482;-75
2023/03/15 02:23:03;;;;;;;11.10;3.25;;;;;;;;;;5048168;28;20041;-75
2023/03/15 02:25:36;;;;;;;11.43;4.60;;;;;;;;;;5044158;28;20796;-75
2023/03/15 02:28:04;;;;;;;9.88;3.22;;;;;;;;;;5041998;28;20902;-75
2023/03/15 02:30:30;;;;;;;6.25;1.75;;;;;;;;;;5047979;28;20017;-75
2023/03/15 02:32:57;;;;;;;6.15;1.42;;;;;;;;;;5047780;28;20198;-75
2023/03/15 02:35:24;;;;;;;5.72;1.90;;;;;;;;;;5040843;28;20120;-75
2023/03/15 02:37:50;;;;;;;8.30;2.30;;;;;;;;;;5047972;28;20026;-75
2023/03/15 02:40:17;;;;;;;4.07;1.98;;;;;;;;;;5043888;28;20040;-75
2023/03/15 02:42:43;;;;;;;5.03;2.20;;;;;;;;;;5044259;28;20136;-75
2023/03/15 02:45:10;;;;;;;6.53;2.20;;;;;;;;;;5044918;28;20162;-75
2023/03/15 02:47:36;;;;;;;6.45;2.33;;;;;;;;;;5046940;28;20112;-75
2023/03/15 02:50:02;;;;;;;8.82;2.78;;;;;;;;;;5050315;28;20576;-75
2023/03/15 02:52:28;;;;;;;13.18;4.00;;;;;;;;;;5049055;28;20070;-75
2023/03/15 02:54:54;;;;;;;6.30;2.65;;;;;;;;;;5050511;28;20381;-75
2023/03/15 02:57:20;;;;;;;5.97;2.00;;;;;;;;;;5047752;28;20036;-75
2023/03/15 02:59:49;;;;;;;9.82;3.75;;;;;;;;;;5047496;28;20037;-75
2023/03/15 03:02:15;;;;;;;6.28;2.30;;;;;;;;;;5044610;28;20025;-75
2023/03/15 03:04:41;;;;;;;6.32;2.30;;;;;;;;;;5057557;28;20048;-75
2023/03/15 03:07:07;;;;;;;10.20;2.20;;;;;;;;;;5060488;28;20071;-75
2023/03/15 03:09:33;;;;;;;8.00;3.80;;;;;;;;;;5045680;28;20037;-74
2023/03/15 03:11:59;;;;;;;9.85;3.10;;;;;;;;;;5047155;28;20120;-75
2023/03/15 03:14:25;;;;;;;8.43;3.10;;;;;;;;;;5049517;28;20800;-75
2023/03/15 03:16:51;;;;;;;6.57;2.75;;;;;;;;;;5051596;28;20050;-75
2023/03/15 03:19:17;;;;;;;6.47;2.85;;;;;;;;;;5043302;28;20029;-75
2023/03/15 03:21:43;;;;;;;7.97;2.35;;;;;;;;;;5047205;28;22184;-75
2023/03/15 03:24:10;;;;;;;6.82;2.63;;;;;;;;;;5049812;28;20029;-75
2023/03/15 03:26:37;;;;;;;6.13;2.63;;;;;;;;;;5045742;28;20079;-75
2023/03/15 03:29:04;;;;;;;7.97;2.20;;;;;;;;;;5050864;28;20040;-75
2023/03/15 03:31:34;;;;;;;4.75;2.08;;;;;;;;;;5047418;28;20044;-75
2023/03/15 03:34:00;;;;;;;6.97;1.40;;;;;;;;;;5050713;28;20059;-75
2023/03/15 03:36:26;;;;;;;7.18;1.70;;;;;;;;;;5050247;28;20029;-75
2023/03/15 03:38:52;;;;;;;5.80;1.08;;;;;;;;;;5050522;28;20123;-75
2023/03/15 03:41:19;;;;;;;6.93;1.30;;;;;;;;;;5050289;28;20043;-75
2023/03/15 03:43:45;;;;;;;4.75;1.40;;;;;;;;;;5050557;28;20052;-75
2023/03/15 03:46:11;;;;;;;10.45;2.03;;;;;;;;;;5047037;28;20044;-75
2023/03/15 03:48:37;;;;;;;7.43;1.65;;;;;;;;;;5046933;28;20768;-75
2023/03/15 03:51:04;;;;;;;8.65;2.42;;;;;;;;;;5048885;28;20521;-75
2023/03/15 03:53:30;;;;;;;6.55;2.40;;;;;;;;;;5048999;28;20383;-75
2023/03/15 03:55:56;;;;;;;7.53;2.40;;;;;;;;;;5043569;28;20053;-75
2023/03/15 03:58:22;;;;;;;6.18;2.45;;;;;;;;;;5046718;28;20072;-75
2023/03/15 04:00:48;;;;;;;8.27;2.35;;;;;;;;;;5049214;28;20075;-75
2023/03/15 04:03:14;;;;;;;7.40;2.08;;;;;;;;;;5048635;28;20037;-75
2023/03/15 04:05:40;;;;;;;5.45;1.38;;;;;;;;;;5020802;28;20388;-75
2023/03/15 04:08:06;;;;;;;8.20;2.30;;;;;;;;;;5049893;28;20116;-75
2023/03/15 04:10:33;;;;;;;5.35;1.88;;;;;;;;;;5049834;28;20028;-75
2023/03/15 04:13:00;;;;;;;8.30;3.15;;;;;;;;;;5048215;28;20029;-75
2023/03/15 04:15:26;;;;;;;8.52;3.60;;;;;;;;;;5025827;28;20040;-75
2023/03/15 04:17:57;;;;;;;8.40;3.85;;;;;;;;;;5049660;28;20386;-75
2023/03/15 04:20:24;;;;;;;9.70;3.92;;;;;;;;;;5049017;28;20071;-75
2023/03/15 04:22:50;;;;;;;8.93;2.58;;;;;;;;;;5044450;28;20029;-75
2023/03/15 04:25:16;;;;;;;7.07;3.88;;;;;;;;;;5049729;28;20064;-75
2023/03/15 04:27:42;;;;;;;7.25;2.72;;;;;;;;;;5049005;28;20032;-75
2023/03/15 04:30:09;;;;;;;8.38;1.67;;;;;;;;;;5038950;28;20033;-75
2023/03/15 04:32:35;;;;;;;5.97;1.52;;;;;;;;;;5049213;28;20424;-75
2023/03/15 04:35:01;;;;;;;7.72;2.20;;;;;;;;;;5049183;28;20033;-75
2023/03/15 04:37:27;;;;;;;5.00;1.40;;;;;;;;;;5051753;28;20465;-75
2023/03/15 04:39:53;;;;;;;7.22;1.73;;;;;;;;;;5047679;28;20037;-75
2023/03/15 04:42:20;;;;;;;7.25;1.88;;;;;;;;;;5048274;28;20049;-75
2023/03/15 04:44:46;;;;;;;6.03;1.88;;;;;;;;;;5047483;28;20033;-75
2023/03/15 04:47:12;;;;;;;10.32;2.25;;;;;;;;;;5023299;28;20124;-75
2023/03/15 04:49:38;;;;;;;9.95;3.83;;;;;;;;;;5049751;28;20824;-75
2023/03/15 04:52:04;;;;;;;21.15;9.57;;;;;;;;;;5048943;28;20043;-75
2023/03/15 04:54:30;;;;;;;18.23;8.80;;;;;;;;;;5030843;28;20136;-75
2023/03/15 04:56:56;;;;;;;12.88;5.30;;;;;;;;;;5045931;28;20108;-75
2023/03/15 04:59:22;;;;;;;19.75;9.27;;;;;;;;;;5020366;28;20041;-75
2023/03/15 05:01:48;;;;;;;17.60;8.75;;;;;;;;;;5055944;23;20063;-75
2023/03/15 05:04:15;;;;;;;18.92;7.85;;;;;;;;;;5045170;28;20028;-75
2023/03/15 05:06:41;;;;;;;15.73;8.32;;;;;;;;;;5038250;28;20026;-75
2023/03/15 05:09:07;;;;;;;15.18;6.22;;;;;;;;;;5047815;28;20090;-75
2023/03/15 05:11:33;;;;;;;21.52;7.68;;;;;;;;;;5048203;28;20909;-75
2023/03/15 05:13:59;;;;;;;13.90;6.47;;;;;;;;;;5044444;28;20033;-75
2023/03/15 05:16:25;;;;;;;16.00;7.65;;;;;;;;;;5050750;28;20056;-75
2023/03/15 05:18:52;;;;;;;13.00;6.78;;;;;;;;;;5043387;28;20107;-75
2023/03/15 05:21:18;;;;;;;13.75;5.97;;;;;;;;;;5049086;28;20079;-75
2023/03/15 05:23:44;;;;;;;12.90;6.15;;;;;;;;;;5048365;28;20033;-75
2023/03/15 05:26:10;;;;;;;12.95;7.07;;;;;;;;;;5048493;28;20037;-75
2023/03/15 05:28:36;;;;;;;10.95;5.40;;;;;;;;;;5047554;28;20033;-75
2023/03/15 05:31:02;;;;;;;13.23;7.22;;;;;;;;;;5047494;28;20029;-75
2023/03/15 05:33:28;;;;;;;9.43;5.63;;;;;;;;;;5036640;28;20106;-75
2023/03/15 05:35:55;;;;;;;14.50;6.40;;;;;;;;;;5048317;28;20087;-75
2023/03/15 05:38:25;;;;;;;11.18;4.45;;;;;;;;;;5047251;28;20029;-75
2023/03/15 05:40:51;;;;;;;16.60;8.82;;;;;;;;;;5048171;28;20021;-75
2023/03/15 05:43:17;;;;;;;16.88;10.55;;;;;;;;;;5041876;28;20083;-75
2023/03/15 05:45:43;;;;;;;19.88;12.70;;;;;;;;;;5042580;28;20148;-75
2023/03/15 05:48:09;;;;;;;21.88;13.73;;;;;;;;;;5046048;28;20041;-75
2023/03/15 05:50:35;;;;;;;18.15;11.20;;;;;;;;;;5047433;28;20048;-75
2023/03/15 05:53:01;;;;;;;23.40;12.25;;;;;;;;;;5023606;28;20044;-75
2023/03/15 05:55:27;;;;;;;25.48;16.17;;;;;;;;;;5043560;28;20619;-75
2023/03/15 05:57:53;;;;;;;21.95;13.35;;;;;;;;;;5042669;28;20064;-75
2023/03/15 06:00:19;;;;;;;19.33;10.07;;;;;;;;;;5048032;28;20485;-75
2023/03/15 06:02:46;;;;;;;17.10;8.77;;;;;;;;;;5050720;28;20053;-75
2023/03/15 06:05:12;;;;;;;19.83;9.18;;;;;;;;;;5061013;28;20029;-75
2023/03/15 06:07:38;;;;;;;14.35;8.68;;;;;;;;;;5066806;28;20056;-75
2023/03/15 06:10:05;;;;;;;13.00;6.30;;;;;;;;;;5060846;28;20036;-75
2023/03/15 06:12:31;;;;;;;20.30;8.20;;;;;;;;;;5065946;28;20078;-75
2023/03/15 06:14:57;;;;;;;20.75;8.88;;;;;;;;;;5067129;28;20404;-75
2023/03/15 06:17:23;;;;;;;13.60;6.95;;;;;;;;;;5064500;28;20056;-75
2023/03/15 06:19:49;;;;;;;20.92;8.57;;;;;;;;;;5065092;28;20036;-75
2023/03/15 06:22:18;;;;;;;15.70;7.68;;;;;;;;;;5061936;28;20036;-75
2023/03/15 06:24:44;;;;;;;29.13;18.55;;;;;;;;;;5064784;28;20051;-75
2023/03/15 06:27:10;;;;;;;19.85;13.13;;;;;;;;;;5067334;28;20461;-75
2023/03/15 06:29:36;;;;;;;25.73;14.48;;;;;;;;;;5068831;28;20036;-76
2023/03/15 06:32:03;;;;;;;18.00;11.00;;;;;;;;;;5046532;28;20044;-75
2023/03/15 06:34:29;;;;;;;14.60;7.78;;;;;;;;;;5066668;28;20028;-76
2023/03/15 06:36:55;;;;;;;14.15;7.50;;;;;;;;;;5066780;28;20043;-76
2023/03/15 06:39:22;;;;;;;15.82;8.70;;;;;;;;;;5066383;28;20036;-76
2023/03/15 06:41:48;;;;;;;17.75;9.15;;;;;;;;;;5066322;28;20032;-76
2023/03/15 06:44:14;;;;;;;16.98;9.02;;;;;;;;;;5062701;28;20036;-76
2023/03/15 06:46:40;;;;;;;20.35;10.15;;;;;;;;;;5062892;28;20032;-75
2023/03/15 06:49:06;;;;;;;21.48;12.35;;;;;;;;;;5065863;28;20039;-76
2023/03/15 06:51:32;;;;;;;17.83;8.95;;;;;;;;;;5082845;28;20040;-76
2023/03/15 06:53:58;;;;;;;16.75;7.85;;;;;;;;;;5063349;28;20028;-75
2023/03/15 06:56:24;;;;;;;13.77;6.28;;;;;;;;;;5065937;28;20111;-75
2023/03/15 06:58:50;;;;;;;10.68;6.47;;;;;;;;;;5061232;28;20033;-75
2023/03/15 07:01:16;;;;;;;10.77;5.47;;;;;;;;;;5066188;28;20040;-75
2023/03/15 07:03:42;;;;;;;16.13;6.43;;;;;;;;;;5060050;28;20872;-76
2023/03/15 07:06:08;;;;;;;15.93;9.70;;;;;;;;;;5066936;28;20037;-76
2023/03/15 07:08:34;;;;;;;22.23;13.18;;;;;;;;;;5070214;28;20107;-76
2023/03/15 07:11:00;;;;;;;16.45;9.82;;;;;;;;;;5071309;28;20028;-76
2023/03/15 07:13:26;;;;;;;17.30;8.80;;;;;;;;;;5067088;28;20029;-76
2023/03/15 07:15:53;;;;;;;12.85;6.78;;;;;;;;;;5084628;28;20028;-76
2023/03/15 07:18:19;;;;;;;14.10;7.00;;;;;;;;;;5071648;28;20060;-76
2023/03/15 07:20:45;;;;;;;14.88;8.05;;;;;;;;;;5079068;28;20020;-76
2023/03/15 07:23:11;;;;;;;18.38;9.55;;;;;;;;;;5073800;28;20033;-76
2023/03/15 07:25:37;;;;;;;16.55;7.93;;;;;;;;;;5062221;28;20071;-75
2023/03/15 07:28:03;;;;;;;14.30;6.30;;;;;;;;;;5071214;28;20108;-76
2023/03/15 07:30:29;;;;;;;13.40;6.55;;;;;;;;;;5054697;28;20035;-76
2023/03/15 07:32:55;;;;;;;15.38;6.03;;;;;;;;;;5072135;28;20045;-76
2023/03/15 07:35:21;;;;;;;13.93;3.78;;;;;;;;;;5070225;28;20099;-76
2023/03/15 07:37:48;;;;;;;155.55;15.98;;;;;;;;;;5074690;28;20085;-76
2023/03/15 07:40:14;;;;;;;42.53;5.97;;;;;;;;;;5053563;28;20103;-76
2023/03/15 07:42:41;;;;;;;13.95;6.35;;;;;;;;;;5068891;28;20044;-76
2023/03/15 07:45:07;;;;;;;12.98;6.45;;;;;;;;;;5070722;28;20110;-76
2023/03/15 07:47:34;;;;;;;15.27;6.63;;;;;;;;;;5069320;28;20040;-76
2023/03/15 07:50:00;;;;;;;18.85;8.45;;;;;;;;;;5062995;28;20024;-76
2023/03/15 07:52:26;;;;;;;28.90;11.00;;;;;;;;;;5058833;28;20028;-76
2023/03/15 07:54:52;;;;;;;26.38;13.55;;;;;;;;;;5048930;28;20044;-76
2023/03/15 07:57:18;;;;;;;30.88;15.95;;;;;;;;;;5061378;28;20385;-76
2023/03/15 07:59:44;;;;;;;24.88;12.82;;;;;;;;;;5048843;28;20473;-76
2023/03/15 08:02:12;;;;;;;19.08;11.10;;;;;;;;;;5064837;28;20084;-75
2023/03/15 08:04:38;;;;;;;14.55;7.22;;;;;;;;;;5066164;28;20033;-76
2023/03/15 08:07:04;;;;;;;19.25;8.98;;;;;;;;;;5073749;28;20043;-76
2023/03/15 08:09:33;;;;;;;28.48;10.60;;;;;;;;;;5049062;28;20071;-75
2023/03/15 08:11:59;;;;;;;20.15;8.38;;;;;;;;;;5068453;28;20036;-76
2023/03/15 08:14:26;;;;;;;27.52;13.35;;;;;;;;;;5049063;28;20072;-76
2023/03/15 08:16:52;;;;;;;19.23;9.45;;;;;;;;;;5066011;28;20064;-76
2023/03/15 08:19:18;;;;;;;22.40;12.07;;;;;;;;;;5062290;28;20477;-76
2023/03/15 08:21:44;;;;;;;198.82;20.55;;;;;;;;;;5069313;28;20043;-76
2023/03/15 08:24:14;;;;;;;10.52;3.47;;;;;;;;;;5067788;28;20052;-76
2023/03/15 08:26:42;;;;;;;9.43;3.95;;;;;;;;;;5068976;28;20058;-76
2023/03/15 08:29:08;;;;;;;9.02;4.53;;;;;;;;;;5069112;28;20024;-76
2023/03/15 08:31:34;;;;;;;10.07;4.32;;;;;;;;;;5069628;28;20040;-76
2023/03/15 08:34:00;;;;;;;12.35;5.25;;;;;;;;;;5065879;28;20033;-76
2023/03/15 08:36:26;;;;;;;12.38;5.70;;;;;;;;;;5067921;28;20036;-76
2023/03/15 08:38:52;;;;;;;13.63;5.45;;;;;;;;;;5064988;28;20028;-76
2023/03/15 08:41:18;;;;;;;10.27;3.55;;;;;;;;;;5068643;28;20480;-75
2023/03/15 08:43:44;;;;;;;10.95;4.00;;;;;;;;;;5072582;28;20102;-75
2023/03/15 08:46:11;;;;;;;9.88;3.80;;;;;;;;;;5068579;28;20041;-76
2023/03/15 08:48:37;;;;;;;11.02;4.63;;;;;;;;;;5054006;28;20021;-76
2023/03/15 08:51:04;;;;;;;10.77;5.05;;;;;;;;;;5070313;28;20384;-76
2023/03/15 08:53:31;;;;;;;11.32;4.93;;;;;;;;;;5084014;28;20028;-75
2023/03/15 08:55:57;;;;;;;11.10;4.75;;;;;;;;;;5065666;28;20040;-76
2023/03/15 08:58:23;;;;;;;10.68;5.30;;;;;;;;;;5066520;28;20094;-76
2023/03/15 09:00:50;;;;;;;12.52;5.32;;;;;;;;;;5060272;28;20028;-76
2023/03/15 09:03:16;;;;;;;13.13;5.15;;;;;;;;;;5066147;28;20048;-76
2023/03/15 09:05:42;;;;;;;9.13;3.72;;;;;;;;;;5049089;28;20102;-76
2023/03/15 09:08:08;;;;;;;13.55;4.30;;;;;;;;;;5069120;28;20036;-75
2023/03/15 09:10:34;;;;;;;7.25;2.72;;;;;;;;;;5065782;28;20036;-76
2023/03/15 09:13:00;;;;;;;7.15;1.67;;;;;;;;;;5067051;28;20461;-76
2023/03/15 09:15:26;;;;;;;9.70;2.22;;;;;;;;;;5062842;28;20035;-75
2023/03/15 09:17:52;;;;;;;6.30;1.83;;;;;;;;;;5070567;28;20389;-75
2023/03/15 09:20:21;;;;;;;8.55;2.00;;;;;;;;;;5073777;28;20078;-75
2023/03/15 09:22:54;;;;;;;5.03;1.55;;;;;;;;;;5066211;28;20480;-76
2023/03/15 09:25:21;;;;;;;4.80;1.60;;;;;;;;;;5062497;28;20037;-75
2023/03/15 09:27:47;;;;;;;7.80;2.10;;;;;;;;;;5066105;28;20032;-75
2023/03/15 09:30:13;;;;;;;5.32;1.33;;;;;;;;;;5055224;28;20028;-75
2023/03/15 09:32:39;;;;;;;8.75;1.45;;;;;;;;;;5046417;28;20869;-75
2023/03/15 09:35:06;;;;;;;4.95;1.35;;;;;;;;;;5070605;28;20648;-75
2023/03/15 09:37:33;;;;;;;6.72;1.50;;;;;;;;;;5062990;28;20033;-75
2023/03/15 09:40:00;;;;;;;5.25;1.05;;;;;;;;;;5063003;28;20029;-75
2023/03/15 09:42:38;;;;;;;4.80;1.00;;;;;;;;;;5062399;28;20140;-75
2023/03/15 09:45:17;;;;;;;4.03;0.60;;;;;;;;;;5063615;28;20032;-75
2023/03/15 09:47:54;;;;;;;4.32;0.65;;;;;;;;;;5060356;28;20044;-75
2023/03/15 09:50:20;;;;;;;6.00;1.02;;;;;;;;;;5065381;28;20032;-75
2023/03/15 09:53:09;;;;;;;4.95;0.85;;;;;;;;;;5059369;28;20033;-75
2023/03/15 09:55:35;;;;;;;2.90;0.60;;;;;;;;;;5051033;28;20036;-75
2023/03/15 09:58:10;;;;;;;2.97;0.60;;;;;;;;;;5063074;28;20049;-75
2023/03/15 10:00:41;;;;;;;3.63;1.00;;;;;;;;;;5060252;28;20116;-75
2023/03/15 10:03:12;;;;;;;3.30;0.65;;;;;;;;;;5066260;28;20059;-75
2023/03/15 10:05:44;;;;;;;3.42;0.70;;;;;;;;;;5069114;28;20051;-75
2023/03/15 10:08:17;;;;;;;3.95;0.98;;;;;;;;;;5067871;28;20047;-75
2023/03/15 10:10:46;;;;;;;4.40;0.60;;;;;;;;;;5054786;28;20087;-75
2023/03/15 10:13:12;;;;;;;3.75;0.85;;;;;;;;;;5063624;28;20471;-75
2023/03/15 10:15:38;;;;;;;6.75;0.98;;;;;;;;;;5064988;28;20028;-75
2023/03/15 10:18:07;;;;;;;3.67;0.60;;;;;;;;;;5063591;28;20838;-75
2023/03/15 10:20:36;;;;;;;3.70;0.85;;;;;;;;;;5065879;28;20040;-75
2023/03/15 10:23:02;;;;;;;5.38;0.50;;;;;;;;;;5064787;28;20393;-75
2023/03/15 10:25:29;;;;;;;4.30;0.75;;;;;;;;;;5065833;28;20036;-75
2023/03/15 10:27:55;;;;;;;8.77;0.80;;;;;;;;;;5061724;28;20044;-75
2023/03/15 10:30:23;;;;;;;4.00;0.52;;;;;;;;;;5064714;28;20478;-75
2023/03/15 10:33:12;;;;;;;5.60;0.70;;;;;;;;;;5066490;28;20033;-75
2023/03/15 10:35:38;;;;;;;5.07;0.70;;;;;;;;;;5036886;28;20490;-75
2023/03/15 10:38:15;;;;;;;2.10;0.65;;;;;;;;;;5069310;28;20027;-75
2023/03/15 10:40:45;;;;;;;4.00;0.63;;;;;;;;;;5061241;28;20977;-75
2023/03/15 10:43:33;;;;;;;4.82;0.50;;;;;;;;;;5065612;28;20481;-76
2023/03/15 10:45:59;;;;;;;6.57;0.50;;;;;;;;;;5066077;28;20036;-76
2023/03/15 10:48:25;;;;;;;4.93;0.60;;;;;;;;;;5070485;28;20025;-76
2023/03/15 10:50:51;;;;;;;3.25;0.50;;;;;;;;;;5069772;28;20406;-76
2023/03/15 10:53:24;;;;;;;4.40;0.60;;;;;;;;;;5065035;28;20091;-75
2023/03/15 10:55:57;;;;;;;3.85;0.40;;;;;;;;;;5067979;28;20397;-75
2023/03/15 10:58:30;;;;;;;2.45;0.30;;;;;;;;;;5068432;28;20028;-75
2023/03/15 11:01:00;;;;;;;3.13;0.35;;;;;;;;;;5067897;28;20082;-75
2023/03/15 11:03:27;;;;;;;4.95;0.47;;;;;;;;;;5068155;28;20803;-75
2023/03/15 11:05:54;;;;;;;5.63;0.50;;;;;;;;;;5067735;28;20060;-75
2023/03/15 11:08:22;;;;;;;1.60;0.30;;;;;;;;;;5068954;28;20071;-75
2023/03/15 11:10:55;;;;;;;2.60;0.40;;;;;;;;;;5070028;28;20032;-75
2023/03/15 11:13:22;;;;;;;2.78;0.40;;;;;;;;;;5068142;28;20035;-76
2023/03/15 11:16:03;;;;;;;2.88;0.38;;;;;;;;;;5068439;28;20109;-76
2023/03/15 11:18:31;;;;;;;2.25;0.40;;;;;;;;;;5064288;28;20021;-76
2023/03/15 11:20:57;;;;;;;1.33;0.15;;;;;;;;;;5067378;28;20036;-76
2023/03/15 11:23:28;;;;;;;3.38;0.30;;;;;;;;;;5070820;28;20060;-75
2023/03/15 11:25:55;;;;;;;2.28;0.30;;;;;;;;;;5066722;28;20358;-76
2023/03/15 11:28:24;;;;;;;4.53;0.40;;;;;;;;;;5065784;28;20036;-76
2023/03/15 11:30:50;;;;;;;1.33;0.50;;;;;;;;;;5066706;28;20028;-75
2023/03/15 11:33:40;;;;;;;2.22;0.30;;;;;;;;;;5067163;28;20473;-75
2023/03/15 11:36:08;;;;;;;1.10;0.20;;;;;;;;;;5057233;28;20129;-76
2023/03/15 11:38:40;;;;;;;2.08;0.40;;;;;;;;;;5061470;28;20175;-76
2023/03/15 11:41:26;;;;;;;2.22;0.43;;;;;;;;;;5066334;28;20032;-75
2023/03/15 11:43:59;;;;;;;1.63;0.30;;;;;;;;;;5065185;28;20032;-76
2023/03/15 11:46:34;;;;;;;1.10;0.20;;;;;;;;;;5064346;28;20025;-76
2023/03/15 11:49:08;;;;;;;1.48;0.30;;;;;;;;;;5066486;28;20048;-76
2023/03/15 11:51:35;;;;;;;2.65;0.30;;;;;;;;;;5064194;28;20504;-75
2023/03/15 11:54:07;;;;;;;0.85;0.20;;;;;;;;;;5065456;28;20798;-76
2023/03/15 11:56:42;;;;;;;1.48;0.30;;;;;;;;;;5068541;28;20056;-76
2023/03/15 11:59:11;;;;;;;1.55;0.35;;;;;;;;;;5065360;28;20440;-76
2023/03/15 12:01:42;;;;;;;2.50;0.20;;;;;;;;;;5068116;28;20075;-76
2023/03/15 12:04:27;;;;;;;2.88;0.43;;;;;;;;;;5065532;28;20037;-76
2023/03/15 12:06:54;;;;;;;2.33;0.40;;;;;;;;;;5064068;28;20033;-76
2023/03/15 12:09:32;;;;;;;0.98;0.30;;;;;;;;;;5062389;28;20144;-76
2023/03/15 12:11:59;;;;;;;0.93;0.20;;;;;;;;;;5063248;28;20025;-76
2023/03/15 12:14:35;;;;;;;1.33;0.30;;;;;;;;;;5067643;28;20140;-76
2023/03/15 12:17:20;;;;;;;3.33;0.40;;;;;;;;;;5068026;28;20151;-76
2023/03/15 12:19:46;;;;;;;2.28;0.32;;;;;;;;;;5062058;28;20614;-76
2023/03/15 12:22:15;;;;;;;1.98;0.40;;;;;;;;;;5067223;28;20032;-76
2023/03/15 12:24:44;;;;;;;2.65;0.47;;;;;;;;;;5067259;28;20060;-76
2023/03/15 12:27:18;;;;;;;1.65;0.30;;;;;;;;;;5063711;28;20053;-76
2023/03/15 12:29:44;;;;;;;2.30;0.40;;;;;;;;;;5063876;28;20034;-76
2023/03/15 12:32:10;;;;;;;3.42;0.47;;;;;;;;;;5070105;28;20111;-76
2023/03/15 12:34:42;;;;;;;3.05;0.40;;;;;;;;;;5065885;28;20048;-76
2023/03/15 12:37:18;;;;;;;2.10;0.50;;;;;;;;;;5067437;28;20039;-76
2023/03/15 12:39:49;;;;;;;4.00;0.50;;;;;;;;;;5072400;28;20024;-76
2023/03/15 12:42:31;;;;;;;2.42;0.38;;;;;;;;;;5061597;28;20718;-76
2023/03/15 12:45:15;;;;;;;2.20;0.30;;;;;;;;;;5064456;28;20035;-76
2023/03/15 12:48:11;;;;;;;1.75;0.32;;;;;;;;;;5071895;28;20450;-76
2023/03/15 12:50:44;;;;;;;1.40;0.35;;;;;;;;;;5066449;28;20029;-76
2023/03/15 12:53:30;;;;;;;1.73;0.30;;;;;;;;;;5064143;28;20055;-76
2023/03/15 12:55:58;;;;;;;1.42;0.32;;;;;;;;;;5051492;28;20135;-76
2023/03/15 12:58:31;;;;;;;1.83;0.20;;;;;;;;;;5065265;28;20032;-76
2023/03/15 13:00:57;;;;;;;1.77;0.22;;;;;;;;;;5068142;28;20082;-76
2023/03/15 13:03:25;;;;;;;0.80;0.30;;;;;;;;;;5061970;28;20112;-76
2023/03/15 13:06:31;;;;;;;1.63;0.25;;;;;;;;;;5060507;28;20037;-76
2023/03/15 13:08:57;;;;;;;2.97;0.50;;;;;;;;;;4966294;28;20038;-76
2023/03/15 13:11:28;;;;;;;2.25;0.35;;;;;;;;;;4949322;28;20206;-76
2023/03/15 13:14:07;;;;;;;1.30;0.25;;;;;;;;;;5017969;28;20032;-76
2023/03/15 13:16:34;;;;;;;1.33;0.20;;;;;;;;;;5062587;28;20036;-76
2023/03/15 13:19:13;;;;;;;2.17;0.22;;;;;;;;;;5061335;28;20028;-76
2023/03/15 13:21:42;;;;;;;0.98;0.20;;;;;;;;;;5067110;28;20462;-76
2023/03/15 13:24:19;;;;;;;3.10;0.52;;;;;;;;;;5063286;28;20518;-76
2023/03/15 13:26:45;;;;;;;1.27;0.15;;;;;;;;;;5063560;28;20050;-76
2023/03/15 13:29:16;;;;;;;1.67;0.30;;;;;;;;;;5066195;28;20389;-76
2023/03/15 13:31:43;;;;;;;3.00;0.45;;;;;;;;;;5065901;28;20028;-76
2023/03/15 13:34:23;;;;;;;0.95;0.10;;;;;;;;;;5068966;28;20543;-76
2023/03/15 13:36:54;;;;;;;2.55;0.45;;;;;;;;;;5068278;28;20494;-75
2023/03/15 13:39:21;;;;;;;3.15;0.30;;;;;;;;;;5074144;28;20469;-76
2023/03/15 13:41:48;;;;;;;0.63;0.20;;;;;;;;;;5060394;28;20035;-76
2023/03/15 13:44:22;;;;;;;1.02;0.25;;;;;;;;;;5045164;28;20056;-76
2023/03/15 13:46:48;;;;;;;2.03;0.43;;;;;;;;;;5065273;28;20067;-76
2023/03/15 13:49:14;;;;;;;2.55;0.30;;;;;;;;;;5063111;28;20354;-76
2023/03/15 13:51:41;;;;;;;1.65;0.32;;;;;;;;;;5062903;28;20043;-76
2023/03/15 13:54:16;;;;;;;14.70;0.65;;;;;;;;;;5066177;28;20029;-75
2023/03/15 13:56:54;;;;;;;1.30;0.30;;;;;;;;;;5063358;28;20098;-76
2023/03/15 13:59:20;;;;;;;5.65;0.40;;;;;;;;;;5066917;28;20024;-76
2023/03/15 14:01:48;;;;;;;3.05;0.40;;;;;;;;;;5062916;28;20052;-76
2023/03/15 14:04:17;;;;;;;2.88;0.40;;;;;;;;;;5062649;28;20036;-76
2023/03/15 14:06:46;;;;;;;3.28;0.70;;;;;;;;;;5066201;28;20040;-76
2023/03/15 14:09:20;;;;;;;2.78;0.50;;;;;;;;;;5065724;28;20066;-76
2023/03/15 14:11:59;;;;;;;1.63;0.35;;;;;;;;;;5064553;28;20143;-76
2023/03/15 14:14:26;;;;;;;1.70;0.28;;;;;;;;;;5065097;28;20024;-76
2023/03/15 14:16:53;;;;;;;3.08;0.45;;;;;;;;;;5067170;28;20028;-76
2023/03/15 14:19:21;;;;;;;0.45;0.20;;;;;;;;;;5074425;28;20036;-76
2023/03/15 14:21:54;;;;;;;1.70;0.30;;;;;;;;;;5074178;28;20493;-76
2023/03/15 14:24:20;;;;;;;2.13;0.40;;;;;;;;;;5081284;28;20888;-77
2023/03/15 14:26:50;;;;;;;1.00;0.30;;;;;;;;;;5074031;28;20036;-76
2023/03/15 14:29:17;;;;;;;2.20;0.38;;;;;;;;;;5067144;28;20049;-76
2023/03/15 14:31:50;;;;;;;1.55;0.40;;;;;;;;;;5065342;28;20412;-76
2023/03/15 14:34:22;;;;;;;2.95;0.30;;;;;;;;;;5074689;28;20044;-76
2023/03/15 14:36:50;;;;;;;1.23;0.20;;;;;;;;;;5076714;28;20036;-76
2023/03/15 14:39:23;;;;;;;2.20;0.30;;;;;;;;;;5072527;28;20039;-76
2023/03/15 14:41:49;;;;;;;3.00;0.43;;;;;;;;;;5072082;28;20480;-76